Aerodrome Latest Weathers

# Airport/Station Observation Time (Local Time) Wind Visibility (km) Weather Temp. (°C) Dewdrop (°C) Air Pressure (hPa)
Direction (from) Speed (km/h)
1 Sultan Iskandar Muda - Banda Aceh 2017-02-23 18:00:00 WIB Utara 14.8 >=10 Berawan 29 24 1009
2 Malikussaleh - Lhokseumawe 2017-02-23 18:00:00 WIB Barat Laut 5.6 7.0 Cerah - berawan 29 24 1009
3 Binaka - Gunung Sitoli 2017-02-23 18:00:00 WIB Tenang 6.0 Berawan 26 25 1009
4 Kualanamu International Airport - Deli Serdang 2017-02-23 18:30:00 WIB Tenang 5.0 Hujan ringan 24 23 1010
5 Dr. Ferdinand Lumban Tobing - Pinangsori (Sibolga) 2017-02-23 18:00:00 WIB Variabel 3.7 >=10 Berawan 27 27 1010
6 Minangkabau International Airport - Padang 2017-02-23 18:30:00 WIB Barat Laut 5.6 >=10 Berawan 25 23 1010
7 Sultan Syarif Kasim II - Pekanbaru 2017-02-23 18:30:00 WIB Timur Laut 9.3 9.0 Cerah - berawan 30 25 1007
8 Depati Parbo - Kerinci 2017-02-23 18:00:00 WIB Barat 13.0 2.0 Guntur dan hujan ringan 21 21 1013
9 Japura - Rengat 2017-02-23 18:00:00 WIB Barat Daya 5.6 6.0 Berawan 27 24 1009
10 Fatmawati Sukarno - Bengkulu 2017-02-23 18:30:00 WIB Tenang 7.0 Hujan ringan 26 25 1010
11 Seibati - Tanjung Balai Karimun 2017-02-23 17:00:00 WIB Timur 20.4 6.0 Cerah - berawan 28 25 1009
12 Sultan Thaha - Jambi 2017-02-23 18:00:00 WIB Utara 11.1 >=10 Berawan 30 25 1009
13 Hang Nadim - Batam 2017-02-23 18:00:00 WIB Timur Laut 18.5 >=10 Berawan 28 24 1011
14 Raja Haji Fisabilillah - Tanjung Pinang 2017-02-23 18:00:00 WIB Timur Laut 7.4 >=10 Cerah - berawan 28 25 1010
15 Dabo - Singkep 2017-02-23 18:00:00 WIB Utara 7.4 9.0 Berawan 28 24 1009
16 Sultan Mahmud Badaruddin II - Palembang 2017-02-23 16:00:00 WIB Utara 7.4 >=10 Berawan 33 23 1007
17 Radin Inten II - Lampung 2017-02-23 18:00:00 WIB Barat Daya 5.6 >=10 Cerah - berawan 28 24 1009
18 Depati Amir - Pangkal Pinang 2017-02-23 18:30:00 WIB Selatan 7.4 8.0 Hujan ringan 24 23 1010
19 Budiarto - Curug 2017-02-23 18:00:00 WIB Timur 7.4 >=10 Cerah 25 24 1010
20 Soekarno Hatta - Jakarta 2017-02-23 18:00:00 WIB Variabel 3.7 5.0 Hujan ringan 26 24 1009
21 Halim Perdanakusuma - Jakarta 2017-02-23 18:00:00 WIB Barat 9.3 4.0 Udara kabur 25 24 1009
22 Husein Sastranegara - Bandung 2017-02-23 18:00:00 WIB Barat 14.8 5.0 Hujan ringan 23 22 1014
23 H.A.S. Hanandjoeddin - Tanjung Pandan 2017-02-23 18:00:00 WIB Tenang 7.0 Berawan 25 24 1010
24 Wiriadinata - Cibeureum, Tasikmalaya 2017-02-23 16:00:00 WIB Tenang 5.0 Udara kabur 27 23 1011
25 Ranai - Natuna 2017-02-23 16:00:00 WIB Barat 5.6 6.0 Berawan 27 24 1009
26 Supadio - Pontianak 2017-02-23 18:30:00 WIB Barat 9.3 6.0 Berawan 28 24 1010
27 Rahadi Osman - Ketapang 2017-02-23 18:00:00 WIB Barat 7.4 7.0 Hujan ringan 28 25 1010
28 Ahmad Yani - Semarang 2017-02-23 18:30:00 WIB Tenang >=10 Cerah - berawan 27 25 1009
29 Adi Soemarmo - Surakarta 2017-02-23 17:00:00 WIB Selatan 7.4 7.0 Cerah - berawan 30 24 1008
30 Iswahjudi - Madiun 2017-02-23 16:00:00 WIB Selatan 11.1 6.0 Berawan 29 25 1010
31 Susilo - Sintang 2017-02-23 18:00:00 WIB Timur Laut 5.6 8.0 Berawan 27 25 1009
32 Iskandar - Pangkalan Bun 2017-02-23 18:00:00 WIB Tenang 5.0 Guntur dan hujan ringan 25 24 1010
33 Nanga Pinoh 2017-02-23 18:00:00 WIB Barat Laut 5.6 7.0 Guntur 30 24 1009
34 Juanda - Surabaya 2017-02-23 18:00:00 WIB Tenggara 9.3 8.0 Cerah - berawan 30 25 1008
35 Pangsuma - Putussibau 2017-02-23 18:00:00 WIB Tenang >=10 Berawan 28 26 1011
36 Haji Asan - Sampit 2017-02-23 18:00:00 WIB Tenang 5.0 Hujan tiba-tiba di sekitarnya 27 24 1010
37 Tjilik Riwut - Palangkaraya 2017-02-23 18:00:00 WIB Utara 5.6 8.0 Berawan 27 24 1011
38 Blimbingsari - Banyuwangi 2017-02-23 18:00:00 WIB Timur 7.4 9.0 Cerah - berawan 29 24 1009
39 Beringin - Muara Teweh 2017-02-23 18:00:00 WIB Tenang 7.0 Berawan 28 25 1010
40 Sanggu - Buntok 2017-02-23 18:00:00 WIB Utara 3.7 6.0 Berawan 25 25 1011
41 Syamsudin Noor - Banjarmasin 2017-02-23 19:30:00 WITA Timur 9.3 8.0 Berawan 26 25 1009
42 Ngurah Rai - Denpasar 2017-02-23 19:30:00 WITA Tenggara 13.0 >=10 Cerah - berawan 29 24 1010
43 Yuvai Semaring - Long Bawang 2017-02-23 18:00:00 WITA Tenang 8.0 Berawan 23 20 1016
44 Bandara Internasional Lombok - Praya 2017-02-23 19:30:00 WITA Selatan 5.6 7.0 Berawan 26 24 1011
45 Gusti Sjamsir Alam - Kota Baru 2017-02-23 19:00:00 WITA Tenang 8.0 Berawan 27 24 1009
46 Sepinggan - Balikpapan 2017-02-23 19:00:00 WITA Utara 11.1 9.0 Cerah - berawan 26 24 1009
47 Temindung - Samarinda 2017-02-23 19:00:00 WITA Utara 3.7 6.0 Berawan 27 25 1011
48 Tanjung Harapan - Tanjung Selor 2017-02-23 19:00:00 WITA Tenang 7.0 Berawan 25 24 1010
49 Sultan Muhammad Kaharuddin - Sumbawa Besar 2017-02-23 19:00:00 WITA Barat Laut 3.7 >=10 Berawan 29 25 1008
50 Kalimarau - Tanjung Redeb 2017-02-23 19:00:00 WITA Tenang >=10 Berawan 25 25 1011
51 Juwata - Tarakan 2017-02-23 19:30:00 WITA Tenang 8.0 Berawan 26 24 1011
52 Nunukan 2017-02-23 19:00:00 WITA Timur 3.7 7.0 Cerah - berawan 25 23 1010
53 Sultan Muhammad Salahuddin - Bima 2017-02-23 19:00:00 WITA Selatan 13.0 7.0 Cerah - berawan 28 24 1009
54 Sultan Hasanuddin - Makassar 2017-02-23 18:30:00 WITA Tenggara 5.6 8.0 Hujan ringan 25 25 1010
55 Pongtiku - Tana Toraja 2017-02-23 19:00:00 WITA Timur 5.6 7.0 Berawan 23 22 1009
56 Komodo - Labuan Bajo 2017-02-23 17:00:00 WITA Timur Laut 11.1 >=10 Berawan 30 24 1008
57 Mutiara - Palu 2017-02-23 19:00:00 WITA Tenang 6.0 Berawan 25 23 1011
58 Umbu Mehang Kunda - Waingapu 2017-02-23 19:00:00 WITA Timur 9.3 5.0 Cerah - berawan 28 24 1010
59 Andi Jemma - Masamba 2017-02-23 19:00:00 WITA Tenang 8.0 Cerah - berawan 29 24 1011
60 Frans Sales Lega - Ruteng 2017-02-23 19:00:00 WITA Tenang 2.0 Udara kabur 21 20 1009
61 Kasiguncu - Poso 2017-02-23 18:00:00 WITA Tenang 9.0 Berawan 28 26 1009
62 Sultan Bantilan - Toli Toli 2017-02-23 19:00:00 WITA Tenang 6.0 Hujan ringan 25 24 1010
63 Tardamu - Sabu 2017-02-23 19:00:00 WITA Tenang 6.0 Cerah - berawan 29 25 1011
64 Fransiskus Xaverius Seda - Maumere 2017-02-23 19:30:00 WITA Barat Daya 5.6 8.0 Cerah - berawan 27 22 1011
65 Wolter Monginsidi - Kendari 2017-02-23 19:00:00 WITA Tenang 2.0 Halimun 24 24 1011
66 Beto Ambari - Bau Bau 2017-02-23 19:00:00 WITA Tenang 5.0 Berawan 26 25 1011
67 Syukuran Aminuddin Amir - Luwuk 2017-02-23 19:00:00 WITA Utara 11.1 >=10 Berawan 27 24 1009
68 Djalaluddin - Gorontalo 2017-02-23 18:00:00 WITA Tenggara 7.4 8.0 Berawan 25 24 1008
69 Gewayantana - Larantuka 2017-02-23 18:00:00 WITA Tenang >=10 Berawan 29 24 1009
70 David Constantijn Saudale / Lekunik - Rote 2017-02-23 19:00:00 WITA Selatan 14.8 >=10 Cerah - berawan 26 24 1015
71 El Tari - Kupang 2017-02-23 19:30:00 WITA Barat Daya 3.7 8.0 Cerah - berawan 25 21 1011
72 Sam Ratulangi - Manado 2017-02-23 19:30:00 WITA Barat Daya 9.3 8.0 Hujan ringan 25 24 1012
73 Naha - Tahuna 2017-02-23 18:00:00 WITA Tenang 8.0 Berawan 25 25 1010
74 Sultan Babullah - Ternate 2017-02-23 20:00:00 WIT Selatan 3.7 9.0 Berawan 28 25 1011
75 Oesman Sadik - Labuha 2017-02-23 18:00:00 WIT Selatan 5.6 8.0 Berawan 26 24 1010
76 Gamar Malamo - Galela 2017-02-23 19:00:00 WIT Barat Daya 5.6 9.0 Berawan 27 26 1009
77 Pattimura - Ambon 2017-02-23 20:00:00 WIT Barat Laut 11.1 9.0 Berawan 27 26 1009
78 Leo Watimena - Morotai 2017-02-23 18:00:00 WIT Timur 3.7 >=10 Berawan 28 24 1009
79 Amahai 2017-02-23 20:00:00 WIT Timur 3.7 >=10 Berawan 27 23 1009
80 Domine Eduard Osok (DEO) - Sorong Kota 2017-02-23 20:00:00 WIT Timur Laut 3.7 4.0 Guntur ringan 26 25 1010
81 Mathilda Batlayeri - Saumlaki 2017-02-23 20:00:00 WIT Tenang >=10 Cerah - berawan 28 25 1009
82 Torea - Fak Fak 2017-02-23 19:00:00 WIT Timur 7.4 2.0 Guntur dan hujan ringan 25 24 1011
83 Karel Sadsuitubun - Tual 2017-02-23 20:00:00 WIT Tenang 7.0 Cerah - berawan 27 26 1010
84 Utarom - Kaimana 2017-02-23 20:03:00 WIT Tenang 4.0 Berawan 25 24 1009
85 Rendani - Manokwari 2017-02-23 19:30:00 WIT Barat Daya 5.6 6.0 Berawan 29 25 1010
86 Nabire 2017-02-23 19:00:00 WIT Tenang 6.0 Berawan 28 26 1008
87 Frans Kaisiepo - Biak 2017-02-23 20:00:00 WIT Timur Laut 7.4 >=10 Cerah - berawan 27 25 1010
88 Enarotali 2017-02-23 20:00:00 WIT Barat 7.4 7.0 Berawan 18 16 1009
89 Moses Kilangin - Timika 2017-02-23 20:00:00 WIT Selatan 3.7 7.0 Cerah - berawan 26 25 1010
90 Mararena / Orai - Sarmi 2017-02-23 20:00:00 WIT Tenang 8.0 Berawan 29 25 1010
91 Wamena 2017-02-23 18:00:00 WIT Tenggara 11.1 >=10 Hujan tiba-tiba di sekitarnya 21 17 1006
92 Mopah - Merauke 2017-02-23 20:00:00 WIT Tenggara 11.1 8.0 Berawan 29 26 1009
93 Sentani - Jayapura 2017-02-23 20:00:00 WIT Utara 3.7 >=10 Guntur di sekitarnya 27 23 1010

Satellite Images

Wave Height Forecast

Wind Forecast

Forest Fires